Time;durP1;ratioP1;P1;durP2;ratioP2;P2;SDS_P1;SDS_P2;PMS_P1;PMS_P2;Temp;Humidity;BMP_temperature;BMP_pressure;BME280_temperature;BME280_humidity;BME280_pressure;Samples;Min_cycle;Max_cycle;Signal;HPM_P1;HPM_P2
2023/01/02 00:01:38;;;;;;;134.35;52.50;;;;;;;3.60;100.00;98861.97;6217162;23;20008;-78
2023/01/02 00:04:04;;;;;;;136.45;56.20;;;;;;;3.57;100.00;98862.84;6242556;23;20014;-78
2023/01/02 00:06:33;;;;;;;150.25;57.85;;;;;;;3.56;100.00;98861.13;6217127;23;20083;-77
2023/01/02 00:08:59;;;;;;;161.90;62.45;;;;;;;3.58;100.00;98869.91;6217520;23;20000;-77
2023/01/02 00:11:24;;;;;;;149.18;61.28;;;;;;;3.57;100.00;98862.84;6242423;23;20008;-76
2023/01/02 00:13:50;;;;;;;183.35;65.35;;;;;;;3.63;100.00;98859.28;6242532;23;20547;-78
2023/01/02 00:16:15;;;;;;;146.60;57.30;;;;;;;3.51;100.00;98844.44;6217006;23;20065;-78
2023/01/02 00:18:41;;;;;;;105.70;45.63;;;;;;;3.47;100.00;98850.66;6242591;23;20062;-77
2023/01/02 00:21:06;;;;;;;99.18;43.08;;;;;;;3.42;100.00;98854.25;6242448;23;20077;-77
2023/01/02 00:23:32;;;;;;;65.47;29.45;;;;;;;3.27;100.00;98852.66;6217195;23;20000;-77
2023/01/02 00:25:58;;;;;;;66.05;26.70;;;;;;;3.24;100.00;98853.59;6242325;23;20004;-77
2023/01/02 00:28:24;;;;;;;76.03;30.23;;;;;;;3.25;100.00;98867.69;6216739;23;20008;-76
2023/01/02 00:30:49;;;;;;;50.17;21.90;;;;;;;3.18;100.00;98860.72;6217055;23;20008;-78
2023/01/02 00:33:15;;;;;;;56.08;24.20;;;;;;;3.22;100.00;98863.31;6242416;23;20024;-78
2023/01/02 00:35:40;;;;;;;53.70;23.17;;;;;;;3.25;100.00;98862.41;6242261;23;20079;-78
2023/01/02 00:38:06;;;;;;;53.75;24.17;;;;;;;3.20;100.00;98851.00;6242534;23;20004;-77
2023/01/02 00:40:32;;;;;;;61.47;26.63;;;;;;;3.31;100.00;98880.84;6242134;23;20352;-77
2023/01/02 00:42:58;;;;;;;60.53;26.00;;;;;;;3.35;100.00;98882.56;6216784;23;20058;-77
2023/01/02 00:45:23;;;;;;;53.63;22.90;;;;;;;3.31;100.00;98883.47;6216588;23;20333;-77
2023/01/02 00:47:49;;;;;;;62.40;24.85;;;;;;;3.32;100.00;98881.72;6242064;23;20031;-77
2023/01/02 00:50:15;;;;;;;65.50;27.58;;;;;;;3.26;100.00;98872.09;6216841;23;20011;-76
2023/01/02 00:52:40;;;;;;;63.85;30.05;;;;;;;3.31;100.00;98883.47;6216870;23;20008;-77
2023/01/02 00:55:06;;;;;;;61.42;27.33;;;;;;;3.27;100.00;98879.09;6241970;23;20352;-77
2023/01/02 00:57:31;;;;;;;62.83;27.15;;;;;;;3.32;100.00;98892.28;6216483;23;20008;-77
2023/01/02 00:59:57;;;;;;;69.60;29.83;;;;;;;3.27;100.00;98881.75;6242068;23;20004;-78
2023/01/02 01:02:22;;;;;;;76.38;32.83;;;;;;;3.25;100.00;98886.19;6216552;23;20011;-78
2023/01/02 01:04:48;;;;;;;69.43;28.75;;;;;;;3.27;100.00;98873.81;6242229;23;20010;-78
2023/01/02 01:07:14;;;;;;;65.55;28.85;;;;;;;3.21;100.00;98865.97;6242135;23;20000;-78
2023/01/02 01:09:39;;;;;;;58.75;26.98;;;;;;;3.16;100.00;98862.50;6216555;23;20031;-78
2023/01/02 01:12:05;;;;;;;50.45;24.08;;;;;;;3.13;100.00;98858.16;6242098;23;20004;-78
2023/01/02 01:14:31;;;;;;;44.50;20.13;;;;;;;3.07;100.00;98849.41;6218161;23;20004;-77
2023/01/02 01:16:56;;;;;;;50.08;21.42;;;;;;;3.05;100.00;98853.81;6244189;23;19996;-77
2023/01/02 01:19:21;;;;;;;59.15;24.90;;;;;;;2.90;100.00;98830.19;6245420;22;20039;-77
2023/01/02 01:21:47;;;;;;;46.65;20.83;;;;;;;2.98;100.00;98855.66;6244054;23;20000;-77
2023/01/02 01:24:14;;;;;;;55.30;22.88;;;;;;;2.97;100.00;98858.31;6218761;23;20411;-77
2023/01/02 01:26:39;;;;;;;56.92;25.08;;;;;;;2.97;100.00;98848.63;6243886;23;20008;-78
2023/01/02 01:29:05;;;;;;;57.22;25.88;;;;;;;2.92;100.00;98841.66;6243847;23;20521;-78
2023/01/02 01:31:30;;;;;;;66.07;27.10;;;;;;;2.91;100.00;98842.53;6243851;23;20065;-77
2023/01/02 01:33:56;;;;;;;66.40;28.58;;;;;;;2.87;100.00;98846.09;6218688;23;20026;-77
2023/01/02 01:36:22;;;;;;;71.50;30.90;;;;;;;2.94;100.00;98858.34;6218624;23;20429;-77
2023/01/02 01:38:49;;;;;;;80.63;34.53;;;;;;;2.96;100.00;98865.38;6243994;23;20436;-78
2023/01/02 01:41:17;;;;;;;79.13;34.10;;;;;;;2.93;100.00;98862.75;6218588;23;20101;-78
2023/01/02 01:43:45;;;;;;;80.18;30.95;;;;;;;2.88;100.00;98853.13;6243768;23;20454;-77
2023/01/02 01:46:31;;;;;;;64.40;27.38;;;;;;;2.92;100.00;98871.59;6241625;23;20004;-77
2023/01/02 01:49:15;;;;;;;74.65;28.08;;;;;;;2.90;100.00;98859.25;6242989;23;20330;-78
2023/01/02 01:51:51;;;;;;;82.78;34.80;;;;;;;2.94;100.00;98861.88;6245538;23;20450;-77
2023/01/02 01:54:21;;;;;;;90.47;33.03;;;;;;;2.87;100.00;98846.97;6218546;23;20058;-78
2023/01/02 01:56:49;;;;;;;91.68;36.80;;;;;;;2.89;100.00;98868.09;6218402;23;20001;-76
2023/01/02 01:59:15;;;;;;;82.13;33.38;;;;;;;2.80;100.00;98852.34;6243750;23;20000;-77
2023/01/02 02:01:41;;;;;;;84.50;32.30;;;;;;;2.85;100.00;98850.53;6218393;23;20425;-77
2023/01/02 02:04:08;;;;;;;84.00;32.20;;;;;;;2.89;100.00;98849.59;6243795;23;20042;-77
2023/01/02 02:06:33;;;;;;;69.68;30.90;;;;;;;2.87;100.00;98846.09;6243502;23;20440;-77
2023/01/02 02:09:13;;;;;;;68.93;29.85;;;;;;;2.90;100.00;98846.06;6243679;23;20038;-76
2023/01/02 02:11:39;;;;;;;68.07;30.00;;;;;;;2.89;100.00;98854.88;6218257;23;20011;-77
2023/01/02 02:14:04;;;;;;;76.30;28.45;;;;;;;2.91;100.00;98859.25;6243595;23;20000;-77
2023/01/02 02:16:51;;;;;;;73.70;28.50;;;;;;;2.94;100.00;98864.50;6218344;23;20027;-76
2023/01/02 02:19:44;;;;;;;55.95;24.70;;;;;;;2.88;100.00;98853.13;6243504;23;20061;-77
2023/01/02 02:22:34;;;;;;;76.13;35.05;;;;;;;2.79;100.00;98847.94;6245188;23;20043;-77
2023/01/02 02:25:24;;;;;;;61.38;24.42;;;;;;;2.71;100.00;98843.59;6244815;23;20065;-76
2023/01/02 02:28:14;;;;;;;52.83;25.35;;;;;;;2.64;100.00;98841.94;6243282;23;20034;-77
2023/01/02 02:31:02;;;;;;;69.15;28.75;;;;;;;2.57;100.00;98837.59;6243400;23;20004;-76
2023/01/02 02:33:55;;;;;;;58.45;24.40;;;;;;;2.51;100.00;98839.41;6244353;23;20082;-77
2023/01/02 02:36:34;;;;;;;50.92;22.67;;;;;;;2.42;100.00;98829.81;6212958;23;20008;-77
2023/01/02 02:39:02;;;;;;;61.08;24.40;;;;;;;2.44;100.00;98835.94;6243437;23;20008;-77
2023/01/02 02:41:37;;;;;;;62.67;24.38;;;;;;;2.42;100.00;98832.47;6243286;23;20092;-77
2023/01/02 02:44:34;;;;;;;54.50;25.73;;;;;;;2.36;100.00;98843.06;6243329;23;20436;-77
2023/01/02 02:47:05;;;;;;;64.07;26.23;;;;;;;2.31;100.00;98834.28;6244366;23;20013;-76
2023/01/02 02:49:42;;;;;;;68.10;27.10;;;;;;;2.36;100.00;98843.06;6243329;23;20095;-77
2023/01/02 02:52:26;;;;;;;60.97;25.73;;;;;;;2.33;100.00;98832.53;6243459;23;20380;-78
2023/01/02 02:55:12;;;;;;;57.80;26.98;;;;;;;2.34;100.00;98838.69;6244583;22;20000;-78
2023/01/02 02:57:38;;;;;;;65.50;29.77;;;;;;;2.21;100.00;98829.13;6238765;22;20091;-78
2023/01/02 03:00:07;;;;;;;71.35;29.40;;;;;;;2.19;100.00;98829.13;6242877;23;20000;-77
2023/01/02 03:02:32;;;;;;;71.35;28.70;;;;;;;2.11;100.00;98820.41;6217714;23;20011;-77
2023/01/02 03:05:01;;;;;;;70.47;29.88;;;;;;;2.22;100.00;98830.84;6243084;23;20000;-78
2023/01/02 03:07:35;;;;;;;72.53;28.95;;;;;;;2.23;100.00;98844.06;6217695;23;20001;-78
2023/01/02 03:10:21;;;;;;;60.33;27.00;;;;;;;2.28;100.00;98844.88;6242893;23;20008;-78
2023/01/02 03:12:46;;;;;;;69.05;27.10;;;;;;;2.31;100.00;98838.72;6242975;23;20003;-78
2023/01/02 03:15:28;;;;;;;63.30;26.48;;;;;;;1.94;100.00;98785.38;6243001;23;20351;-79
2023/01/02 03:18:18;;;;;;;65.97;26.50;;;;;;;2.33;100.00;98835.19;6244479;22;20011;-76
2023/01/02 03:20:47;;;;;;;62.65;27.40;;;;;;;2.30;100.00;98832.56;6244643;23;20428;-77
2023/01/02 03:23:19;;;;;;;58.05;25.95;;;;;;;2.26;100.00;98825.56;6217801;23;20004;-77
2023/01/02 03:25:45;;;;;;;64.45;26.63;;;;;;;2.33;100.00;98827.25;6242925;23;20010;-77
2023/01/02 03:28:13;;;;;;;71.15;27.33;;;;;;;2.28;100.00;98830.84;6217432;23;20008;-78
2023/01/02 03:30:50;;;;;;;66.97;28.20;;;;;;;2.29;100.00;98830.81;6242989;23;20000;-79
2023/01/02 03:33:17;;;;;;;75.80;30.25;;;;;;;2.26;100.00;98835.22;6217722;23;20000;-77
2023/01/02 03:35:49;;;;;;;64.35;28.60;;;;;;;2.27;100.00;98840.50;6217251;23;20012;-77
2023/01/02 03:38:21;;;;;;;73.10;30.10;;;;;;;2.30;100.00;98840.50;6217607;23;20425;-77
2023/01/02 03:40:59;;;;;;;73.72;30.02;;;;;;;2.26;100.00;98835.22;6243037;23;20015;-78
2023/01/02 03:43:30;;;;;;;67.38;28.70;;;;;;;2.23;100.00;98837.91;6242698;23;20087;-77
2023/01/02 03:46:23;;;;;;;76.25;32.63;;;;;;;2.18;100.00;98848.50;6242487;23;20004;-78
2023/01/02 03:49:17;;;;;;;97.53;41.35;;;;;;;2.16;100.00;98855.53;6233079;23;20008;-78
2023/01/02 03:51:43;;;;;;;116.88;47.35;;;;;;;2.09;100.00;98859.97;6244199;23;20058;-78
2023/01/02 03:54:09;;;;;;;117.63;48.58;;;;;;;1.95;100.00;98855.69;6217215;23;20036;-78
2023/01/02 03:56:40;;;;;;;109.90;42.03;;;;;;;2.00;100.00;98864.47;6217186;23;20004;-78
2023/01/02 03:59:34;;;;;;;89.68;37.78;;;;;;;1.98;100.00;98860.94;6242279;23;20008;-77
2023/01/02 04:02:21;;;;;;;79.63;31.38;;;;;;;1.92;100.00;98861.00;6242390;23;20004;-78
2023/01/02 04:04:52;;;;;;;80.60;32.63;;;;;;;1.94;100.00;98872.44;6242498;23;20432;-78
2023/01/02 04:07:27;;;;;;;64.40;27.00;;;;;;;1.92;100.00;98877.72;6242460;23;20083;-79
2023/01/02 04:09:54;;;;;;;73.85;28.63;;;;;;;1.88;100.00;98872.44;6242583;23;20083;-77
2023/01/02 04:12:22;;;;;;;65.65;28.88;;;;;;;1.82;100.00;98869.84;6217252;23;20012;-77
2023/01/02 04:15:03;;;;;;;66.30;27.92;;;;;;;1.82;100.00;98875.13;6217516;23;20042;-78
2023/01/02 04:17:31;;;;;;;75.28;29.27;;;;;;;1.72;100.00;98873.44;6217135;23;20000;-78
2023/01/02 04:20:05;;;;;;;68.10;28.85;;;;;;;1.78;100.00;98886.59;6216951;23;20084;-78
2023/01/02 04:22:35;;;;;;;67.25;27.63;;;;;;;1.75;100.00;98884.84;6217387;23;20452;-78
2023/01/02 04:25:21;;;;;;;66.78;27.77;;;;;;;1.75;100.00;98889.25;6216894;23;20019;-78
2023/01/02 04:27:56;;;;;;;63.90;25.88;;;;;;;1.73;100.00;98888.34;6241802;23;20371;-78
2023/01/02 04:30:21;;;;;;;59.33;25.95;;;;;;;1.68;100.00;98882.25;6242163;23;20443;-78
2023/01/02 04:32:47;;;;;;;62.75;25.98;;;;;;;1.66;100.00;98881.41;6217060;23;20011;-78
2023/01/02 04:35:20;;;;;;;60.25;24.42;;;;;;;1.62;100.00;98884.03;6216758;23;20079;-79
2023/01/02 04:37:47;;;;;;;52.47;24.02;;;;;;;1.62;100.00;98889.31;6242497;23;20008;-77
2023/01/02 04:40:16;;;;;;;50.30;22.58;;;;;;;1.63;100.00;98890.19;6242105;23;20494;-78
2023/01/02 04:42:42;;;;;;;50.03;21.85;;;;;;;1.57;100.00;98885.81;6242180;23;20008;-77
2023/01/02 04:45:08;;;;;;;52.58;23.17;;;;;;;1.62;100.00;98896.34;6241913;23;20079;-77
2023/01/02 04:47:33;;;;;;;56.90;22.73;;;;;;;1.57;100.00;98890.19;6216395;23;20359;-77
2023/01/02 04:49:59;;;;;;;48.85;22.20;;;;;;;1.58;100.00;98903.38;6242115;23;20007;-77
2023/01/02 04:52:24;;;;;;;56.78;22.67;;;;;;;1.56;100.00;98894.63;6216846;23;20087;-77
2023/01/02 04:54:50;;;;;;;56.75;21.13;;;;;;;1.51;100.00;98888.47;6216937;23;20024;-78
2023/01/02 04:57:15;;;;;;;57.15;22.48;;;;;;;1.48;100.00;98900.78;6216643;23;20079;-78
2023/01/02 04:59:41;;;;;;;53.78;21.25;;;;;;;1.46;100.00;98898.16;6242199;23;20432;-77
2023/01/02 05:02:06;;;;;;;49.30;20.70;;;;;;;1.50;100.00;98897.28;6216829;23;20062;-77
2023/01/02 05:04:32;;;;;;;51.80;21.52;;;;;;;1.56;100.00;98910.44;6216680;23;20000;-78
2023/01/02 05:06:57;;;;;;;51.90;21.38;;;;;;;1.61;100.00;98910.41;6216829;23;20000;-78
2023/01/02 05:09:23;;;;;;;48.65;21.95;;;;;;;1.64;100.00;98908.63;6243471;22;20000;-78
2023/01/02 05:11:48;;;;;;;48.50;22.65;;;;;;;1.69;100.00;98907.75;6242347;23;20026;-77
2023/01/02 05:14:14;;;;;;;51.17;23.25;;;;;;;1.72;100.00;98915.63;6241937;23;20019;-78
2023/01/02 05:16:39;;;;;;;52.78;23.83;;;;;;;1.72;100.00;98920.91;6242136;23;19996;-78
2023/01/02 05:19:05;;;;;;;59.55;25.80;;;;;;;1.72;100.00;98920.91;6216812;23;20012;-78
2023/01/02 05:24:14;;;;;;;58.20;24.85;;;;;;;1.71;100.00;98916.50;6242152;23;20015;-77
2023/01/02 05:26:40;;;;;;;76.65;29.45;;;;;;;1.74;100.00;98925.28;6216422;23;20012;-78
2023/01/02 05:29:05;;;;;;;72.95;25.92;;;;;;;1.71;100.00;98919.16;6216672;23;20070;-78
2023/01/02 05:31:31;;;;;;;75.72;31.15;;;;;;;1.76;100.00;98926.16;6241800;23;20158;-78
2023/01/02 05:33:57;;;;;;;72.43;31.35;;;;;;;1.72;100.00;98926.19;6242385;23;20093;-78
2023/01/02 05:36:24;;;;;;;77.22;34.42;;;;;;;1.79;100.00;98938.44;6242065;23;20000;-79
2023/01/02 05:38:50;;;;;;;91.95;34.17;;;;;;;1.89;100.00;98946.31;6216836;23;20004;-78
2023/01/02 05:41:19;;;;;;;75.47;33.10;;;;;;;1.72;100.00;98921.78;6242154;23;20141;-80
2023/01/02 05:43:47;;;;;;;89.00;37.42;;;;;;;1.76;100.00;98935.81;6216579;23;20096;-80
2023/01/02 05:46:18;;;;;;;87.05;37.50;;;;;;;1.74;100.00;98943.75;6216309;23;20086;-79
2023/01/02 05:48:44;;;;;;;96.18;40.67;;;;;;;1.67;100.00;98942.03;6214233;23;20004;-78
2023/01/02 05:51:12;;;;;;;110.07;43.67;;;;;;;1.54;100.00;98929.75;6216038;23;20015;-78
2023/01/02 05:53:38;;;;;;;116.28;46.65;;;;;;;1.45;100.00;98914.88;6241773;23;20403;-78
2023/01/02 05:56:11;;;;;;;81.03;34.35;;;;;;;1.55;100.00;98924.50;6216486;23;20028;-79
2023/01/02 05:58:39;;;;;;;72.38;29.60;;;;;;;1.42;100.00;98920.16;6242030;23;20004;-75
2023/01/02 06:01:09;;;;;;;68.47;29.42;;;;;;;1.43;100.00;98924.53;6218129;23;20054;-79
2023/01/02 06:04:05;;;;;;;73.80;30.05;;;;;;;1.45;100.00;98933.31;6243480;23;20008;-80
2023/01/02 06:06:35;;;;;;;67.20;31.05;;;;;;;1.48;100.00;98927.16;6218630;23;20012;-77
2023/01/02 06:09:02;;;;;;;109.35;46.58;;;;;;;1.48;100.00;98933.31;6243740;23;20008;-78
2023/01/02 06:11:28;;;;;;;83.57;36.50;;;;;;;1.53;100.00;98931.53;6243587;23;20448;-78
2023/01/02 06:13:54;;;;;;;71.82;32.47;;;;;;;1.51;100.00;98929.78;6218247;23;20011;-77
2023/01/02 06:16:20;;;;;;;78.63;33.58;;;;;;;1.52;100.00;98931.53;6243843;23;19996;-78
2023/01/02 06:18:46;;;;;;;91.55;36.75;;;;;;;1.51;100.00;98933.28;6218057;23;20004;-78
2023/01/02 06:21:14;;;;;;;84.20;36.85;;;;;;;1.55;100.00;98945.59;6217984;23;20059;-78
2023/01/02 06:23:40;;;;;;;80.32;36.95;;;;;;;1.63;100.00;98951.69;6243393;23;20007;-79
2023/01/02 06:26:12;;;;;;;103.53;39.45;;;;;;;1.64;100.00;98961.38;6218091;23;20347;-79
2023/01/02 06:28:38;;;;;;;94.50;41.17;;;;;;;1.56;100.00;98950.00;6217889;23;20337;-78
2023/01/02 06:31:24;;;;;;;103.53;42.83;;;;;;;1.45;100.00;98945.63;6218212;23;20083;-78
2023/01/02 06:33:57;;;;;;;106.25;39.45;;;;;;;1.43;100.00;98937.72;6243802;23;20007;-78
2023/01/02 06:36:24;;;;;;;91.07;38.42;;;;;;;1.48;100.00;98943.84;6243434;23;20397;-77
2023/01/02 06:38:49;;;;;;;96.70;42.38;;;;;;;1.53;100.00;98947.38;6243373;23;20008;-77
2023/01/02 06:41:15;;;;;;;89.55;37.33;;;;;;;1.52;100.00;98940.31;6243370;23;20000;-78
2023/01/02 06:43:43;;;;;;;105.35;39.47;;;;;;;1.51;100.00;98935.03;6243251;23;20455;-79
2023/01/02 06:46:09;;;;;;;95.72;39.85;;;;;;;1.61;100.00;98936.78;6217644;23;20008;-78
2023/01/02 06:48:35;;;;;;;91.28;39.50;;;;;;;1.75;100.00;98952.53;6217752;23;20154;-78
2023/01/02 06:51:09;;;;;;;93.95;38.85;;;;;;;2.09;100.00;98954.13;6242919;23;20035;-78
2023/01/02 06:53:37;;;;;;;143.30;53.33;;;;;;;2.86;100.00;98965.91;6217885;23;20007;-77
2023/01/02 06:56:03;;;;;;;102.05;45.35;;;;;;;3.84;100.00;98951.63;6243207;23;20143;-79
2023/01/02 06:58:30;;;;;;;109.03;44.78;;;;;;;4.67;100.00;98908.00;6217834;23;20047;-79
2023/01/02 07:01:00;;;;;;;87.93;37.10;;;;;;;5.53;100.00;98867.50;6217643;23;20008;-78
2023/01/02 07:03:26;;;;;;;93.70;38.60;;;;;;;6.02;100.00;98835.47;6218518;23;20063;-81
2023/01/02 07:05:51;;;;;;;86.35;37.38;;;;;;;6.62;100.00;98823.31;6217632;23;19996;-78
2023/01/02 07:08:17;;;;;;;74.30;34.90;;;;;;;7.19;100.00;98799.63;6217911;23;20046;-80
2023/01/02 07:10:42;;;;;;;59.78;27.15;;;;;;;7.29;100.00;98774.47;6217614;23;20444;-78
2023/01/02 07:13:08;;;;;;;62.50;29.08;;;;;;;7.88;100.00;98775.31;6242917;23;20077;-79
2023/01/02 07:15:35;;;;;;;60.15;29.25;;;;;;;8.60;93.25;98741.88;6217760;23;20004;-79
2023/01/02 07:18:00;;;;;;;73.15;31.50;;;;;;;9.06;87.05;98714.41;6243199;23;20003;-79
2023/01/02 07:20:26;;;;;;;79.32;39.55;;;;;;;9.86;83.06;98711.25;6242937;23;20460;-79
2023/01/02 07:22:52;;;;;;;90.18;44.97;;;;;;;10.19;79.59;98693.84;6217626;23;20008;-79
2023/01/02 07:25:19;;;;;;;116.53;52.63;;;;;;;9.96;79.44;98667.19;6242977;23;19996;-79
2023/01/02 07:27:46;;;;;;;150.20;72.43;;;;;;;9.76;81.52;98640.41;6242686;23;20014;-78
2023/01/02 07:30:12;;;;;;;130.85;61.35;;;;;;;10.67;80.09;98663.25;6243075;23;20000;-80
2023/01/02 07:32:38;;;;;;;158.25;77.68;;;;;;;11.12;75.13;98650.44;6243100;23;20474;-81
2023/01/02 07:35:03;;;;;;;149.15;75.68;;;;;;;11.40;73.29;98633.94;6242843;23;20004;-79
2023/01/02 07:37:29;;;;;;;142.52;69.00;;;;;;;11.82;70.83;98631.88;6217975;23;20453;-79
2023/01/02 07:39:55;;;;;;;131.27;61.92;;;;;;;11.80;69.86;98612.34;6244738;22;20027;-79
2023/01/02 07:42:20;;;;;;;154.43;74.63;;;;;;;12.23;68.33;98608.34;6217994;23;20427;-80
2023/01/02 07:44:46;;;;;;;179.63;90.88;;;;;;;12.41;67.28;98593.97;6217607;23;20519;-79
2023/01/02 07:47:11;;;;;;;178.45;90.55;;;;;;;12.68;65.96;98591.63;6243180;23;20012;-79
2023/01/02 07:49:37;;;;;;;180.98;92.65;;;;;;;13.04;64.62;98605.75;6244228;23;20007;-78
2023/01/02 07:52:02;;;;;;;162.77;85.13;;;;;;;13.30;63.37;98606.16;6217067;23;20000;-78
2023/01/02 07:54:28;;;;;;;179.68;92.28;;;;;;;13.47;61.91;98598.88;6216901;23;20011;-79
2023/01/02 07:56:53;;;;;;;155.35;78.07;;;;;;;13.58;62.13;98600.97;6242567;23;20085;-78
2023/01/02 07:59:19;;;;;;;157.77;79.40;;;;;;;13.78;60.43;98594.44;6242136;23;20004;-79
2023/01/02 08:01:44;;;;;;;168.32;83.10;;;;;;;14.02;59.14;98577.75;6216692;23;20007;-79
2023/01/02 08:04:10;;;;;;;161.48;82.55;;;;;;;14.06;59.47;98591.84;6242215;23;20352;-79
2023/01/02 08:06:38;;;;;;;167.30;85.28;;;;;;;13.88;59.88;98577.66;6216926;23;20004;-79
2023/01/02 08:09:04;;;;;;;153.07;78.35;;;;;;;14.21;59.22;98585.59;6243095;23;20027;-80
2023/01/02 08:11:29;;;;;;;141.82;75.15;;;;;;;14.55;58.09;98589.81;6242043;23;20003;-79
2023/01/02 08:13:56;;;;;;;128.57;67.10;;;;;;;14.42;57.81;98568.16;6216899;23;20014;-78
2023/01/02 08:16:21;;;;;;;107.68;55.65;;;;;;;14.64;57.87;98576.63;6241857;23;20000;-78
2023/01/02 08:18:50;;;;;;;133.70;69.10;;;;;;;14.76;58.40;98572.34;6241893;23;20032;-80
2023/01/02 08:21:16;;;;;;;139.15;70.78;;;;;;;15.25;57.00;98567.41;6215328;23;20357;-82
2023/01/02 08:23:44;;;;;;;136.63;70.40;;;;;;;15.81;56.80;98566.38;6215985;23;20026;-83
2023/01/02 08:26:10;;;;;;;135.60;71.15;;;;;;;16.20;55.50;98576.34;6214353;23;20074;-81
2023/01/02 08:28:37;;;;;;;156.48;84.68;;;;;;;16.37;54.65;98567.06;6213903;23;20345;-80
2023/01/02 08:31:10;;;;;;;150.15;77.53;;;;;;;16.33;54.06;98563.75;6238933;23;20000;-79
2023/01/02 08:33:36;;;;;;;126.68;68.50;;;;;;;17.00;52.40;98561.72;6213960;23;20439;-79
2023/01/02 08:36:02;;;;;;;131.32;68.38;;;;;;;16.99;51.80;98551.88;6214093;23;20098;-74
2023/01/02 08:38:27;;;;;;;170.32;94.20;;;;;;;16.99;50.98;98543.75;6213076;23;20356;-73
2023/01/02 08:40:53;;;;;;;193.80;107.18;;;;;;;16.65;51.29;98540.75;6238764;23;20004;-74
2023/01/02 08:43:18;;;;;;;198.43;111.35;;;;;;;15.77;53.70;98529.81;6239870;22;20008;-72
2023/01/02 08:45:44;;;;;;;172.38;96.03;;;;;;;16.30;53.36;98546.88;6239748;22;20015;-73
2023/01/02 08:48:09;;;;;;;174.20;97.90;;;;;;;16.93;51.88;98550.47;6238075;23;20549;-72
2023/01/02 08:50:35;;;;;;;146.80;81.88;;;;;;;17.84;50.00;98554.59;6238387;23;20000;-74
2023/01/02 08:53:02;;;;;;;143.30;78.90;;;;;;;17.78;50.24;98555.91;6213695;23;20028;-73
2023/01/02 08:55:27;;;;;;;103.65;58.35;;;;;;;18.29;49.14;98553.81;6239828;22;20518;-73
2023/01/02 08:57:53;;;;;;;120.45;63.30;;;;;;;18.69;48.84;98554.31;6237938;23;20011;-74
2023/01/02 09:00:18;;;;;;;124.65;67.78;;;;;;;18.70;48.26;98545.16;6239867;22;20008;-74
2023/01/02 09:02:44;;;;;;;125.75;72.00;;;;;;;18.99;47.41;98533.84;6240131;22;20470;-72
2023/01/02 09:05:09;;;;;;;129.73;71.32;;;;;;;19.33;46.91;98522.88;6239797;22;20015;-73
2023/01/02 09:07:35;;;;;;;134.80;75.00;;;;;;;19.60;46.69;98522.47;6239564;22;20008;-72
2023/01/02 09:10:00;;;;;;;124.88;71.72;;;;;;;20.10;45.73;98511.94;6240109;22;20058;-73
2023/01/02 09:12:26;;;;;;;101.95;54.65;;;;;;;20.29;45.55;98536.56;6212848;23;20095;-72
2023/01/02 09:14:51;;;;;;;117.22;63.78;;;;;;;20.50;45.33;98518.41;6238357;23;20004;-73
2023/01/02 09:17:17;;;;;;;114.38;64.43;;;;;;;21.00;44.10;98522.16;6213048;23;20003;-73
2023/01/02 09:19:43;;;;;;;97.38;58.65;;;;;;;21.63;42.79;98521.81;6238238;23;20081;-74
2023/01/02 09:22:09;;;;;;;105.68;62.65;;;;;;;21.97;41.78;98511.44;6238492;23;20012;-74
2023/01/02 09:24:35;;;;;;;117.25;68.65;;;;;;;22.78;40.88;98507.38;6212953;23;20405;-74
2023/01/02 09:27:01;;;;;;;110.97;65.03;;;;;;;23.16;39.74;98490.84;6238294;23;20015;-73
2023/01/02 09:29:26;;;;;;;130.25;65.97;;;;;;;23.91;38.78;98492.44;6212834;23;20008;-72
2023/01/02 09:31:52;;;;;;;133.75;76.43;;;;;;;24.29;38.17;98480.38;6238319;23;20015;-73
2023/01/02 09:34:17;;;;;;;113.70;70.75;;;;;;;24.35;37.55;98478.88;6240119;23;20015;-73
2023/01/02 09:36:43;;;;;;;124.18;71.93;;;;;;;23.85;38.03;98471.19;6240177;23;20138;-73
2023/01/02 09:39:08;;;;;;;135.73;80.25;;;;;;;23.93;37.89;98468.56;6240648;23;20008;-74
2023/01/02 09:41:54;;;;;;;129.07;75.18;;;;;;;24.03;37.76;98460.25;6237725;23;20147;-73
2023/01/02 09:44:22;;;;;;;124.63;73.15;;;;;;;23.92;38.26;98465.97;6238931;23;20090;-72
2023/01/02 09:46:53;;;;;;;126.05;73.03;;;;;;;24.25;37.82;98459.81;6239970;22;20020;-72
2023/01/02 09:49:22;;;;;;;102.90;59.45;;;;;;;24.42;36.86;98445.25;6237526;22;20039;-73
2023/01/02 09:51:48;;;;;;;104.80;61.33;;;;;;;24.77;36.83;98444.28;6232445;23;20462;-72
2023/01/02 09:54:23;;;;;;;103.43;61.90;;;;;;;24.43;37.26;98449.69;6233242;22;20004;-73
2023/01/02 09:57:22;;;;;;;107.00;64.97;;;;;;;24.60;37.00;98445.19;6238230;23;20007;-73
2023/01/02 10:00:08;;;;;;;88.10;55.05;;;;;;;25.05;36.42;98432.16;6240891;22;20008;-74
2023/01/02 10:03:01;;;;;;;88.28;54.10;;;;;;;24.60;37.02;98420.56;6241050;22;20325;-74
2023/01/02 10:05:37;;;;;;;95.60;52.13;;;;;;;24.19;37.39;98417.53;6241051;22;20001;-73
2023/01/02 10:08:22;;;;;;;87.68;49.20;;;;;;;24.69;37.09;98423.19;6239508;22;20043;-73
2023/01/02 10:10:55;;;;;;;88.40;51.60;;;;;;;25.01;36.33;98419.78;6235531;23;20000;-74
2023/01/02 10:13:26;;;;;;;84.70;50.03;;;;;;;25.84;35.18;98421.63;6239223;23;20012;-74
2023/01/02 10:15:53;;;;;;;86.78;48.72;;;;;;;25.79;35.35;98420.41;6238194;23;20062;-73
2023/01/02 10:18:31;;;;;;;63.88;38.28;;;;;;;25.74;35.20;98420.94;6239984;23;20008;-74
2023/01/02 10:21:00;;;;;;;54.15;32.83;;;;;;;26.29;34.05;98409.34;6238152;23;20000;-73
2023/01/02 10:23:32;;;;;;;60.40;35.92;;;;;;;27.09;32.79;98394.59;6241001;22;20000;-73
2023/01/02 10:26:03;;;;;;;53.38;33.20;;;;;;;27.78;31.70;98403.88;6238585;23;20004;-74
2023/01/02 10:28:37;;;;;;;65.60;34.60;;;;;;;27.59;32.00;98387.84;6240653;23;20012;-74
2023/01/02 10:31:34;;;;;;;50.15;29.77;;;;;;;27.69;32.06;98385.69;6241482;22;20337;-74
2023/01/02 10:34:01;;;;;;;68.68;36.67;;;;;;;27.95;31.61;98383.44;6212946;23;20004;-74
2023/01/02 10:36:32;;;;;;;76.80;46.42;;;;;;;28.73;30.49;98385.88;6214765;23;20011;-73
2023/01/02 10:39:00;;;;;;;63.83;38.00;;;;;;;28.66;30.39;98373.91;6240083;23;20355;-73
2023/01/02 10:41:27;;;;;;;58.97;35.85;;;;;;;28.24;30.74;98355.19;6239874;23;20026;-73
2023/01/02 10:43:55;;;;;;;61.20;35.88;;;;;;;28.87;30.18;98361.06;6214687;23;20004;-74
2023/01/02 10:46:21;;;;;;;70.63;43.95;;;;;;;29.38;29.64;98358.38;6238946;23;20022;-73
2023/01/02 10:48:48;;;;;;;62.20;38.13;;;;;;;29.51;29.24;98345.59;6241403;23;20012;-74
2023/01/02 10:51:15;;;;;;;64.85;38.63;;;;;;;29.31;29.38;98341.78;6239088;23;20008;-75
2023/01/02 10:53:41;;;;;;;60.03;37.65;;;;;;;29.16;29.82;98329.88;6214769;23;20023;-74
2023/01/02 10:56:15;;;;;;;60.70;37.53;;;;;;;27.77;30.86;98303.13;6214146;23;20387;-77
2023/01/02 10:58:46;;;;;;;81.82;47.30;;;;;;;26.76;32.45;98305.09;6240290;23;20472;-75
2023/01/02 11:01:17;;;;;;;63.55;40.38;;;;;;;26.31;32.82;98295.63;6240113;23;20016;-74
2023/01/02 11:03:43;;;;;;;61.67;39.85;;;;;;;26.93;32.38;98309.50;6215358;23;20484;-74
2023/01/02 11:06:53;;;;;;;59.50;39.50;;;;;;;26.07;33.53;98290.16;6214413;23;20363;-74
2023/01/02 11:09:20;;;;;;;61.90;35.45;;;;;;;25.69;34.69;98299.09;6098613;23;20080;-74
2023/01/02 11:11:57;;;;;;;64.15;38.25;;;;;;;26.80;33.50;98309.22;6223832;23;20372;-75
2023/01/02 11:14:28;;;;;;;49.28;29.58;;;;;;;27.51;32.91;98313.63;6215070;23;20509;-74
2023/01/02 11:17:00;;;;;;;42.58;27.75;;;;;;;27.58;33.05;98306.38;6239724;23;20137;-74
2023/01/02 11:19:26;;;;;;;34.05;21.13;;;;;;;28.49;32.25;98321.72;6214856;23;20032;-73
2023/01/02 11:21:52;;;;;;;28.42;18.85;;;;;;;28.81;31.24;98311.41;6239545;23;20050;-73
2023/01/02 11:24:18;;;;;;;32.08;19.13;;;;;;;28.78;31.54;98311.78;6214922;23;20042;-75
2023/01/02 11:26:46;;;;;;;30.85;18.17;;;;;;;29.22;30.99;98311.72;6241114;22;20004;-73
2023/01/02 11:29:23;;;;;;;24.75;15.68;;;;;;;29.66;30.25;98303.31;6240035;23;20007;-75